Accueil
METAR-TAF:

METAR-TAF

Aéroports :

Aéroport international des îles Marshall

Majuro, Îles Marshall

latitude: 07-04N, longitude: 171-17E, altitude: 2 m

Observation

Le bulletin a été fait il y a 59 minutes, à 21:52 UTC
Température 29°C
Humidité 79%
Pression 1011 hPa
Visibilité: 24.1 km
Nuages épars à une hauteur de 5000 ft
Nuages fragmentés à une hauteur de 12000 ft
Ciel couvert à une hauteur de 30000 ft

METAR: PKMJ 172152Z 09006K 15SM FEW15 SCT050 BKN120 OVC300 29/25 A2986

Heure: 10:51 (22:51 UTC)

Prévision

Le bulletin a été fait il y a 5 heures et 30 minutes, à 17:21 UTC
Prévision valable du 17 à 18 UTC au 18 à 18 UTC
Vent 9 kt de est
Visibilité: 10 km
Nuages épars à une hauteur de 1500 ft
Nuages épars à une hauteur de 5000 ft
Nuages fragmentés à une hauteur de 12000 ft
averses à proximité,

TAF: PKMJ 171721Z 1718/1818 10009KT P6SM VCSH SCT015 SCT050 BKN120

Observations et prévisions météorologiques de plus de 4000 aéroports (messages METAR et TAF).

Les stations disponibles sont représentées par des disques jaunes et rouges sur la carte.

Passer la souris dessus pour voir le nom de la station.

Cliquer dessus pour voir les observations et prévisions météorologiques.

Pour changer de carte: cliquez sur les boutons verts avec une croix noire pour zoomer, sur le bouton vert avec un tiret pour effectuer un zoom arrière, ou sur les flèches vertes pour les cartes adjacentes.


METAR-TAF: